createdAt,value
2022-10-02T00:07:12.374Z,6.50
2022-10-02T00:17:28.511Z,6.23
2022-10-02T00:27:41.907Z,7.03
2022-10-02T00:38:25.147Z,6.97
2022-10-02T00:48:51.639Z,8.13
2022-10-02T00:59:10.953Z,9.90
2022-10-02T01:09:13.453Z,9.90
2022-10-02T01:19:35.607Z,8.63
2022-10-02T01:29:39.944Z,10.07
2022-10-02T01:39:42.094Z,10.03
2022-10-02T01:50:33.925Z,10.40
2022-10-02T02:00:57.884Z,9.90
2022-10-02T02:11:16.406Z,10.50
2022-10-02T02:21:39.625Z,9.83
2022-10-02T02:31:49.808Z,9.03
2022-10-02T02:42:04.344Z,9.93
2022-10-02T02:52:08.676Z,11.00
2022-10-02T03:02:11.786Z,10.43
2022-10-02T03:12:41.281Z,10.83
2022-10-02T03:23:12.605Z,11.13
2022-10-02T03:33:17.526Z,11.67
2022-10-02T03:43:23.306Z,11.40
2022-10-02T03:53:30.888Z,11.07
2022-10-02T04:03:39.150Z,11.70
2022-10-02T04:13:50.834Z,13.50
2022-10-02T04:23:57.096Z,13.20
2022-10-02T04:34:07.218Z,15.20
2022-10-02T04:44:16.922Z,12.93
2022-10-02T04:54:28.720Z,13.83
2022-10-02T05:04:58.081Z,14.80
2022-10-02T05:15:22.964Z,13.93
2022-10-02T05:25:50.175Z,14.07
2022-10-02T05:36:10.593Z,14.17
2022-10-02T05:46:24.343Z,14.00
2022-10-02T05:56:33.958Z,13.63
2022-10-02T06:06:42.107Z,12.33
2022-10-02T06:17:05.844Z,12.10
2022-10-02T06:27:15.474Z,12.63
2022-10-02T06:37:39.895Z,13.67
2022-10-02T06:48:05.778Z,12.30
2022-10-02T06:58:16.735Z,11.40
2022-10-02T07:08:27.947Z,10.17
2022-10-02T07:18:42.990Z,9.53
2022-10-02T07:29:09.039Z,9.17
2022-10-02T07:39:20.217Z,8.93
2022-10-02T07:49:45.165Z,7.77
2022-10-02T07:59:53.424Z,7.23
2022-10-02T08:09:58.340Z,5.57
2022-10-02T08:20:09.937Z,4.17
2022-10-02T08:30:18.559Z,4.20
2022-10-02T08:40:32.243Z,4.03
2022-10-02T08:51:05.392Z,3.20
2022-10-02T09:01:35.239Z,2.80
2022-10-02T09:11:45.183Z,2.72
2022-10-02T09:21:56.461Z,2.40
2022-10-02T09:32:44.716Z,2.20
2022-10-02T09:43:13.913Z,2.55
2022-10-02T09:53:49.365Z,2.20
2022-10-02T10:04:01.219Z,1.75
2022-10-02T10:14:26.332Z,1.42
2022-10-02T10:24:55.352Z,1.80
2022-10-02T10:35:03.389Z,1.67
2022-10-02T10:45:23.555Z,1.63
2022-10-02T10:55:51.567Z,1.83
2022-10-02T11:06:07.006Z,1.85
2022-10-02T11:16:31.813Z,2.33
2022-10-02T11:27:19.924Z,3.10
2022-10-02T11:37:46.296Z,2.93
2022-10-02T11:48:28.388Z,2.67
2022-10-02T11:59:01.422Z,2.17
2022-10-02T12:09:24.063Z,2.45
2022-10-02T12:20:29.511Z,1.70
2022-10-02T12:30:40.914Z,1.90
2022-10-02T12:40:56.675Z,2.55
2022-10-02T12:51:44.443Z,3.00
2022-10-02T13:02:09.174Z,3.08
2022-10-02T13:12:39.632Z,2.60
2022-10-02T13:23:14.703Z,2.30
2022-10-02T13:33:53.025Z,2.17
2022-10-02T13:44:16.144Z,2.85
2022-10-02T13:55:13.604Z,2.60
2022-10-02T14:06:03.170Z,2.17
2022-10-02T14:16:29.746Z,2.17
2022-10-02T14:26:55.028Z,2.35
2022-10-02T14:37:34.397Z,2.60
2022-10-02T14:48:01.739Z,2.63
2022-10-02T14:58:39.393Z,2.20
2022-10-02T15:09:01.006Z,2.50
2022-10-02T15:19:13.055Z,2.35
2022-10-02T15:29:41.352Z,3.10
2022-10-02T15:40:10.054Z,3.08
2022-10-02T15:50:40.959Z,2.77
2022-10-02T16:01:05.883Z,3.30
2022-10-02T16:11:20.700Z,3.27
2022-10-02T16:21:39.290Z,3.40
2022-10-02T16:31:55.760Z,3.73
2022-10-02T16:42:25.110Z,3.50
2022-10-02T16:52:53.533Z,3.83
2022-10-02T17:03:15.545Z,4.67
2022-10-02T17:13:43.184Z,3.90
2022-10-02T17:24:12.335Z,3.93
2022-10-02T17:34:18.037Z,4.17
2022-10-02T17:44:38.363Z,4.23
2022-10-02T17:55:08.097Z,5.23
2022-10-02T18:05:33.529Z,5.20
2022-10-02T18:16:16.203Z,4.57
2022-10-02T18:26:24.865Z,4.40
2022-10-02T18:36:52.020Z,4.80
2022-10-02T18:47:02.882Z,6.00
2022-10-02T18:57:07.936Z,5.70
2022-10-02T19:07:16.860Z,5.63
2022-10-02T19:17:26.181Z,5.80
2022-10-02T19:27:33.111Z,5.67
2022-10-02T19:38:06.621Z,6.70
2022-10-02T19:48:10.668Z,4.83
2022-10-02T19:58:36.047Z,3.63
2022-10-02T20:08:43.941Z,2.80
2022-10-02T20:18:56.095Z,2.57
2022-10-02T20:29:05.214Z,2.23
2022-10-02T20:39:14.590Z,2.40
2022-10-02T20:49:41.502Z,3.07
2022-10-02T20:59:48.300Z,3.70
2022-10-02T21:10:31.293Z,4.37
2022-10-02T21:21:13.281Z,5.03
2022-10-02T21:31:33.598Z,5.07
2022-10-02T21:42:07.541Z,4.20
2022-10-02T21:52:31.890Z,4.40
2022-10-02T22:03:07.676Z,4.37
2022-10-02T22:13:25.614Z,3.17
2022-10-02T22:23:49.443Z,2.63
2022-10-02T22:34:08.652Z,3.50
2022-10-02T22:44:24.417Z,3.63
2022-10-02T22:54:47.335Z,4.50
2022-10-02T23:04:54.051Z,3.90
2022-10-02T23:15:05.713Z,5.03
2022-10-02T23:25:22.981Z,3.90
2022-10-02T23:35:36.496Z,4.07
2022-10-02T23:45:53.850Z,4.70
2022-10-02T23:56:04.013Z,5.07
